Time;durP1;ratioP1;P1;durP2;ratioP2;P2;SDS_P1;SDS_P2;PMS_P1;PMS_P2;Temp;Humidity;BMP_temperature;BMP_pressure;BME280_temperature;BME280_humidity;BME280_pressure;Samples;Min_cycle;Max_cycle;Signal;HPM_P1;HPM_P2
2023/04/11 00:02:00;;;;;;;23.98;12.55;;;;;;;13.32;54.39;101073.34;4985801;28;20145;-53
2023/04/11 00:04:26;;;;;;;21.95;12.98;;;;;;;13.34;54.16;101073.22;5000205;28;20033;-55
2023/04/11 00:06:52;;;;;;;20.77;12.75;;;;;;;13.34;54.14;101068.81;4989729;28;20065;-55
2023/04/11 00:09:17;;;;;;;20.98;12.68;;;;;;;13.37;54.03;101063.34;4991828;28;20030;-54
2023/04/11 00:11:43;;;;;;;22.58;12.30;;;;;;;13.35;53.86;101054.66;4980095;28;20034;-54
2023/04/11 00:14:09;;;;;;;14.43;7.80;;;;;;;13.32;53.97;101046.06;4990762;28;20034;-55
2023/04/11 00:16:35;;;;;;;20.25;12.52;;;;;;;13.34;53.82;101037.09;4989618;28;20090;-54
2023/04/11 00:19:00;;;;;;;22.55;11.93;;;;;;;13.35;53.87;101036.16;4991349;28;20026;-54
2023/04/11 00:21:26;;;;;;;21.85;12.77;;;;;;;13.34;53.71;101029.16;4987489;28;20125;-54
2023/04/11 00:23:52;;;;;;;20.50;12.18;;;;;;;13.36;53.66;101016.72;4983460;28;20093;-54
2023/04/11 00:26:17;;;;;;;22.33;12.25;;;;;;;13.34;53.55;101010.66;4991261;28;20125;-53
2023/04/11 00:28:43;;;;;;;18.75;10.95;;;;;;;13.29;53.73;101009.28;4990606;28;20105;-55
2023/04/11 00:31:08;;;;;;;21.75;12.32;;;;;;;13.25;53.56;101001.53;4986686;28;20409;-53
2023/04/11 00:33:34;;;;;;;19.83;10.77;;;;;;;13.27;53.55;101006.72;4987783;28;20501;-52
2023/04/11 00:35:59;;;;;;;19.52;10.57;;;;;;;13.28;53.51;101000.47;4985850;28;20370;-53
2023/04/11 00:38:24;;;;;;;20.85;11.48;;;;;;;13.24;53.51;100991.06;4985381;28;20533;-54
2023/04/11 00:40:50;;;;;;;19.83;10.80;;;;;;;13.22;53.36;100992.97;4988788;28;20057;-54
2023/04/11 00:43:15;;;;;;;19.25;11.02;;;;;;;13.23;53.32;100992.03;4988214;28;20041;-53
2023/04/11 00:45:41;;;;;;;20.30;11.25;;;;;;;13.26;53.13;100981.22;4985319;28;20026;-54
2023/04/11 00:48:06;;;;;;;24.27;11.95;;;;;;;13.30;52.85;100981.91;4988950;28;20536;-55
2023/04/11 00:50:38;;;;;;;18.05;11.15;;;;;;;13.31;52.89;100973.88;4986945;28;20053;-53
2023/04/11 00:53:04;;;;;;;22.15;11.15;;;;;;;13.26;52.89;100979.47;4989128;28;20038;-53
2023/04/11 00:55:29;;;;;;;20.42;11.63;;;;;;;13.25;52.87;100971.59;4985791;28;20065;-53
2023/04/11 00:57:55;;;;;;;21.20;10.63;;;;;;;13.24;53.04;100962.84;4982740;28;20503;-53
2023/04/11 01:00:21;;;;;;;20.23;11.35;;;;;;;13.21;52.99;100951.66;4983573;28;20046;-52
2023/04/11 01:02:47;;;;;;;20.77;10.65;;;;;;;13.21;52.84;100952.47;4982771;28;20034;-54
2023/04/11 01:05:14;;;;;;;20.33;10.95;;;;;;;13.20;52.47;100949.94;4979409;28;20026;-52
2023/04/11 01:07:42;;;;;;;19.98;10.18;;;;;;;13.26;52.69;100945.09;4987881;28;20065;-54
2023/04/11 01:10:11;;;;;;;19.80;11.80;;;;;;;13.29;52.43;100937.94;4979725;28;20062;-53
2023/04/11 01:12:38;;;;;;;20.77;11.77;;;;;;;13.28;52.63;100937.06;4987826;28;20361;-52
2023/04/11 01:15:05;;;;;;;18.52;10.88;;;;;;;13.30;52.34;100935.16;4986567;28;20037;-55
2023/04/11 01:17:31;;;;;;;19.30;11.32;;;;;;;13.30;52.34;100935.16;4985605;28;20038;-52
2023/04/11 01:19:57;;;;;;;20.38;12.20;;;;;;;13.30;52.31;100926.41;4992028;28;20050;-53
2023/04/11 01:22:24;;;;;;;18.02;10.77;;;;;;;13.30;52.30;100927.25;4985889;28;20034;-53
2023/04/11 01:24:50;;;;;;;19.30;11.20;;;;;;;13.31;52.20;100922.81;4982050;28;20034;-55
2023/04/11 01:27:16;;;;;;;21.40;10.98;;;;;;;13.31;52.23;100928.94;4988377;28;20420;-54
2023/04/11 01:29:41;;;;;;;19.90;11.02;;;;;;;13.32;52.05;100917.41;4989871;28;20050;-51
2023/04/11 01:32:07;;;;;;;16.67;10.50;;;;;;;13.30;52.16;100908.75;4984152;28;20440;-54
2023/04/11 01:34:34;;;;;;;17.67;9.90;;;;;;;13.30;51.88;100916.66;4988704;28;20035;-55
2023/04/11 01:37:00;;;;;;;18.25;10.50;;;;;;;13.29;51.94;100909.69;4992510;28;20089;-56
2023/04/11 01:39:26;;;;;;;18.20;11.25;;;;;;;13.29;52.27;100904.41;4981133;28;20054;-55
2023/04/11 01:41:52;;;;;;;18.38;10.27;;;;;;;13.34;51.97;100910.25;4985965;28;20080;-53
2023/04/11 01:44:19;;;;;;;16.30;9.98;;;;;;;13.37;51.57;100899.47;4986892;28;20026;-54
2023/04/11 01:46:46;;;;;;;16.92;9.05;;;;;;;13.37;51.41;100893.31;4989167;28;20392;-53
2023/04/11 01:49:14;;;;;;;16.38;9.20;;;;;;;13.38;51.44;100890.59;4987483;28;20484;-52
2023/04/11 01:51:41;;;;;;;17.10;9.88;;;;;;;13.39;51.36;100880.84;4987740;28;20042;-54
2023/04/11 01:54:06;;;;;;;16.35;9.57;;;;;;;13.40;51.26;100879.94;4982630;28;20030;-53
2023/04/11 01:56:31;;;;;;;16.85;9.57;;;;;;;13.41;51.03;100865.78;4980515;28;20029;-54
2023/04/11 01:58:57;;;;;;;16.85;9.77;;;;;;;13.37;50.89;100873.03;4985633;28;20031;-54
2023/04/11 02:01:23;;;;;;;17.60;9.77;;;;;;;13.36;50.83;100863.41;4986600;28;20027;-55
2023/04/11 02:03:49;;;;;;;16.88;9.57;;;;;;;13.37;50.66;100851.03;4985846;28;20041;-51
2023/04/11 02:06:16;;;;;;;16.88;8.85;;;;;;;13.37;50.68;100845.75;4985719;28;20042;-54
2023/04/11 02:08:43;;;;;;;17.02;9.68;;;;;;;13.35;50.54;100822.06;4987608;28;20049;-52
2023/04/11 02:11:08;;;;;;;15.63;9.23;;;;;;;13.30;50.56;100810.97;4983151;28;20069;-55
2023/04/11 02:13:34;;;;;;;19.63;9.95;;;;;;;13.28;50.41;100789.06;4981154;28;20639;-55
2023/04/11 02:16:13;;;;;;;17.45;8.93;;;;;;;13.26;50.17;100783.91;4984909;28;20034;-55
2023/04/11 02:18:40;;;;;;;15.70;9.40;;;;;;;13.25;50.54;100776.06;4987296;28;20362;-51
2023/04/11 02:21:05;;;;;;;17.58;9.55;;;;;;;13.24;50.67;100782.31;4991314;28;20153;-53
2023/04/11 02:23:31;;;;;;;15.80;9.10;;;;;;;13.24;50.42;100775.25;4981634;28;20070;-54
2023/04/11 02:25:56;;;;;;;11.18;6.32;;;;;;;13.20;50.57;100778.19;4986171;28;20038;-52
2023/04/11 02:28:22;;;;;;;15.52;9.40;;;;;;;13.18;50.32;100772.16;4984129;28;20173;-52
2023/04/11 02:30:48;;;;;;;17.00;9.65;;;;;;;13.17;50.61;100765.19;4987693;28;20036;-52
2023/04/11 02:33:14;;;;;;;19.25;11.73;;;;;;;13.10;50.65;100765.59;4980243;28;20026;-52
2023/04/11 02:35:41;;;;;;;20.65;11.68;;;;;;;13.16;50.58;100758.22;4989718;28;20085;-51
2023/04/11 02:38:06;;;;;;;11.82;5.97;;;;;;;13.15;50.70;100745.97;4978518;28;20728;-55
2023/04/11 02:40:32;;;;;;;18.58;10.05;;;;;;;13.10;50.75;100747.09;4988364;28;20109;-51
2023/04/11 02:42:57;;;;;;;18.02;10.57;;;;;;;13.07;50.76;100746.47;4985922;28;20117;-51
2023/04/11 02:45:22;;;;;;;18.05;10.02;;;;;;;13.07;50.95;100739.41;4982342;28;20145;-50
2023/04/11 02:47:48;;;;;;;16.45;10.02;;;;;;;13.04;51.01;100731.69;4986476;28;20495;-52
2023/04/11 02:50:13;;;;;;;19.10;10.18;;;;;;;13.00;50.97;100732.84;4985191;28;20435;-53
2023/04/11 02:52:41;;;;;;;18.85;10.48;;;;;;;13.01;50.98;100733.72;4978216;28;20026;-52
2023/04/11 02:55:07;;;;;;;22.10;10.93;;;;;;;12.99;50.97;100731.16;4981070;28;20069;-55
2023/04/11 02:57:32;;;;;;;18.90;10.70;;;;;;;13.00;51.07;100722.28;4985257;28;20038;-51
2023/04/11 02:59:58;;;;;;;17.85;9.88;;;;;;;13.02;50.86;100714.25;4987763;28;20358;-53
2023/04/11 03:02:24;;;;;;;18.48;10.07;;;;;;;13.01;51.21;100708.13;4986596;28;20033;-53
2023/04/11 03:04:50;;;;;;;20.08;11.07;;;;;;;13.02;50.97;100714.25;4980572;28;20030;-55
2023/04/11 03:07:15;;;;;;;17.48;10.55;;;;;;;12.99;50.97;100710.03;4990738;28;20327;-54
2023/04/11 03:09:40;;;;;;;19.52;11.27;;;;;;;13.03;50.78;100706.22;4982875;28;20027;-54
2023/04/11 03:12:06;;;;;;;19.13;11.30;;;;;;;13.06;50.93;100706.03;4982857;28;20050;-55
2023/04/11 03:14:31;;;;;;;18.67;9.70;;;;;;;13.06;50.85;100698.09;4987304;28;20065;-54
2023/04/11 03:16:57;;;;;;;20.30;11.48;;;;;;;13.02;50.95;100688.69;4951162;28;20022;-57
2023/04/11 03:19:22;;;;;;;19.50;11.00;;;;;;;13.03;51.07;100685.09;4978169;28;20029;-52
2023/04/11 03:21:48;;;;;;;20.02;10.68;;;;;;;13.03;50.96;100682.47;4982793;28;20027;-60
2023/04/11 03:24:13;;;;;;;21.38;11.35;;;;;;;13.04;50.83;100680.66;4980920;28;20041;-50
2023/04/11 03:26:39;;;;;;;20.02;11.18;;;;;;;13.04;51.00;100673.59;4984396;28;20381;-55
2023/04/11 03:29:04;;;;;;;18.63;10.40;;;;;;;13.08;50.97;100674.22;4985751;28;20034;-57
2023/04/11 03:31:29;;;;;;;18.73;10.48;;;;;;;13.08;50.73;100668.94;4982300;28;20038;-49
2023/04/11 03:33:55;;;;;;;16.02;9.70;;;;;;;13.09;50.82;100668.81;4989020;28;20030;-52
2023/04/11 03:36:25;;;;;;;20.13;11.30;;;;;;;13.09;50.56;100663.53;4983795;28;20026;-55
2023/04/11 03:38:51;;;;;;;19.85;10.02;;;;;;;13.10;50.53;100659.94;4984300;28;20023;-56
2023/04/11 03:41:18;;;;;;;17.75;9.77;;;;;;;13.13;50.51;100660.69;4980388;28;20038;-64
2023/04/11 03:43:44;;;;;;;17.45;10.35;;;;;;;13.11;50.46;100661.63;4982016;28;20524;-51
2023/04/11 03:46:10;;;;;;;18.48;9.60;;;;;;;13.16;50.27;100655.19;4988613;28;20109;-51
2023/04/11 03:48:35;;;;;;;14.75;9.48;;;;;;;13.15;50.31;100654.34;4981207;28;20437;-59
2023/04/11 03:51:01;;;;;;;16.80;9.15;;;;;;;13.16;50.15;100657.81;4986001;28;20034;-50
2023/04/11 03:53:27;;;;;;;20.00;10.38;;;;;;;13.19;50.19;100654.97;4987327;28;20037;-51
2023/04/11 03:55:53;;;;;;;17.45;9.82;;;;;;;13.15;50.08;100649.06;4983242;28;20030;-51
2023/04/11 03:58:19;;;;;;;16.02;8.82;;;;;;;13.13;50.12;100643.03;4983989;28;20154;-53
2023/04/11 04:00:45;;;;;;;16.88;8.20;;;;;;;13.16;49.89;100641.97;4984339;28;20437;-55
2023/04/11 04:03:12;;;;;;;14.35;8.98;;;;;;;13.16;49.86;100641.97;4979694;28;20452;-54
2023/04/11 04:05:40;;;;;;;18.25;10.73;;;;;;;13.16;49.75;100636.69;4987896;28;20026;-53
2023/04/11 04:08:06;;;;;;;17.38;9.63;;;;;;;13.16;49.83;100636.69;4985847;28;20769;-51
2023/04/11 04:10:32;;;;;;;16.13;9.23;;;;;;;13.15;49.97;100632.34;4995842;28;20042;-53
2023/04/11 04:12:57;;;;;;;15.63;9.63;;;;;;;13.14;50.03;100628.03;4994160;28;20034;-51
2023/04/11 04:15:22;;;;;;;16.00;9.65;;;;;;;13.17;49.86;100633.09;4990237;28;20105;-52
2023/04/11 04:17:48;;;;;;;15.65;9.52;;;;;;;13.14;49.75;100628.88;4988081;28;20022;-52
2023/04/11 04:20:13;;;;;;;17.38;8.70;;;;;;;13.13;49.82;100627.19;4991714;28;20089;-50
2023/04/11 04:22:39;;;;;;;17.92;9.85;;;;;;;13.14;50.00;100631.53;4983218;28;20504;-50
2023/04/11 04:25:05;;;;;;;19.63;9.65;;;;;;;13.10;49.80;100617.66;4988800;28;20030;-51
2023/04/11 04:27:31;;;;;;;15.38;9.05;;;;;;;13.11;50.02;100619.34;4987089;28;20053;-50
2023/04/11 04:29:56;;;;;;;20.17;9.98;;;;;;;13.15;49.80;100616.50;4990794;28;20039;-50
2023/04/11 04:32:23;;;;;;;15.32;8.52;;;;;;;13.16;49.88;100610.28;4986213;28;20038;-53
2023/04/11 04:34:54;;;;;;;19.00;10.07;;;;;;;13.16;49.79;100610.28;4991491;28;20038;-57
2023/04/11 04:37:21;;;;;;;18.15;10.30;;;;;;;13.14;49.78;100605.09;4988898;28;20030;-54
2023/04/11 04:39:55;;;;;;;19.42;11.25;;;;;;;13.15;49.76;100606.81;4990841;28;20065;-57
2023/04/11 04:42:22;;;;;;;17.23;9.95;;;;;;;13.15;49.95;100595.38;4993849;28;20038;-56
2023/04/11 04:44:48;;;;;;;15.38;10.05;;;;;;;13.16;49.91;100607.63;4993717;28;20036;-55
2023/04/11 04:47:14;;;;;;;17.77;10.30;;;;;;;13.14;50.13;100596.31;4995449;28;20120;-58
2023/04/11 04:49:39;;;;;;;16.25;9.52;;;;;;;13.14;49.80;100591.03;4989544;28;20026;-57
2023/04/11 04:52:05;;;;;;;17.75;9.20;;;;;;;13.16;50.05;100600.53;4994018;28;20671;-56
2023/04/11 04:54:31;;;;;;;18.65;10.07;;;;;;;13.18;50.04;100597.81;4996346;28;20476;-57
2023/04/11 04:56:56;;;;;;;15.80;9.40;;;;;;;13.17;50.08;100591.66;4988083;28;20108;-54
2023/04/11 04:59:22;;;;;;;18.60;9.43;;;;;;;13.18;50.09;100593.34;4991291;28;20026;-57
2023/04/11 05:01:50;;;;;;;17.95;9.73;;;;;;;13.18;49.94;100592.53;4985728;28;20022;-57
2023/04/11 05:04:15;;;;;;;17.10;9.85;;;;;;;13.14;50.04;100591.91;4987620;28;20040;-57
2023/04/11 05:06:41;;;;;;;15.32;9.57;;;;;;;13.15;49.94;100587.44;4991015;28;20037;-54
2023/04/11 05:09:07;;;;;;;15.45;9.52;;;;;;;13.16;50.15;100583.84;4973176;28;20544;-56
2023/04/11 05:11:33;;;;;;;15.77;9.32;;;;;;;13.13;50.00;100581.41;4988290;28;20485;-55
2023/04/11 05:13:58;;;;;;;14.35;8.13;;;;;;;13.14;50.08;100585.75;4987972;28;20048;-53
2023/04/11 05:16:24;;;;;;;17.08;10.13;;;;;;;13.14;50.03;100575.19;4982414;28;20058;-57
2023/04/11 05:18:49;;;;;;;16.38;9.25;;;;;;;13.15;49.92;100582.16;4985773;28;20671;-55
2023/04/11 05:21:14;;;;;;;17.83;9.63;;;;;;;13.17;49.92;100580.25;4988370;28;20042;-57
2023/04/11 05:23:40;;;;;;;14.52;9.55;;;;;;;13.16;49.88;100584.69;4979363;28;20802;-56
2023/04/11 05:26:07;;;;;;;18.77;9.82;;;;;;;13.15;49.96;100587.44;4992459;28;20026;-55
2023/04/11 05:28:33;;;;;;;15.93;9.52;;;;;;;13.13;50.03;100584.06;4984324;28;20030;-57
2023/04/11 05:30:58;;;;;;;16.50;9.60;;;;;;;13.12;49.96;100572.66;4988639;28;20038;-55
2023/04/11 05:33:24;;;;;;;18.27;9.98;;;;;;;13.13;49.97;100574.34;4988022;28;20038;-56
2023/04/11 05:35:50;;;;;;;18.60;10.10;;;;;;;13.15;49.74;100566.31;4992495;28;20480;-54
2023/04/11 05:38:16;;;;;;;15.00;8.75;;;;;;;13.18;49.89;100576.66;4989499;28;20037;-55
2023/04/11 05:40:41;;;;;;;19.73;9.25;;;;;;;13.20;49.83;100580.03;4987531;28;20034;-57
2023/04/11 05:43:10;;;;;;;15.45;9.95;;;;;;;13.18;50.13;100579.31;4996899;28;20569;-58
2023/04/11 05:45:35;;;;;;;16.88;9.55;;;;;;;13.12;50.12;100572.66;4983464;28;20058;-54
2023/04/11 05:48:02;;;;;;;16.23;9.52;;;;;;;13.10;50.10;100591.25;4988104;28;20105;-55
2023/04/11 05:50:28;;;;;;;16.92;9.27;;;;;;;13.10;50.32;100585.97;4984919;28;20040;-54
2023/04/11 05:52:53;;;;;;;17.27;9.73;;;;;;;13.13;50.38;100589.34;4992134;28;20034;-57
2023/04/11 05:55:19;;;;;;;16.95;9.88;;;;;;;13.09;50.64;100584.28;4987243;28;20031;-54
2023/04/11 05:57:44;;;;;;;14.68;9.88;;;;;;;13.05;50.39;100566.97;4987551;28;20038;-57
2023/04/11 06:00:15;;;;;;;19.23;9.75;;;;;;;13.09;50.47;100576.34;4989046;28;20061;-54
2023/04/11 06:02:41;;;;;;;14.93;9.25;;;;;;;13.09;50.43;100572.88;4984686;28;20054;-53
2023/04/11 06:05:10;;;;;;;14.65;9.10;;;;;;;13.10;50.45;100566.66;4985484;28;20050;-56
2023/04/11 06:07:38;;;;;;;18.98;9.10;;;;;;;13.15;50.82;100561.88;4989716;28;20026;-57
2023/04/11 06:10:05;;;;;;;16.65;9.60;;;;;;;13.21;50.71;100565.88;4986560;28;20130;-57
2023/04/11 06:12:31;;;;;;;19.77;9.52;;;;;;;13.30;50.96;100569.66;4986441;28;20041;-54
2023/04/11 06:14:57;;;;;;;17.80;9.65;;;;;;;13.36;51.15;100564.78;4987678;28;20022;-57
2023/04/11 06:17:23;;;;;;;17.83;9.27;;;;;;;13.39;51.43;100561.88;4982706;28;20057;-57
2023/04/11 06:19:48;;;;;;;15.70;9.20;;;;;;;13.41;51.74;100567.94;4987827;28;20509;-57
2023/04/11 06:22:13;;;;;;;14.75;9.05;;;;;;;13.38;51.61;100564.66;4989338;28;20121;-58
2023/04/11 06:24:39;;;;;;;15.85;8.70;;;;;;;13.38;51.70;100578.72;4988947;28;20034;-57
2023/04/11 06:27:08;;;;;;;17.90;9.00;;;;;;;13.40;52.09;100571.53;4990071;28;20038;-57
2023/04/11 06:29:34;;;;;;;16.05;9.23;;;;;;;13.34;52.23;100571.13;4979988;28;20034;-54
2023/04/11 06:32:00;;;;;;;16.25;9.15;;;;;;;13.31;52.37;100574.81;4987749;28;20594;-54
2023/04/11 06:34:26;;;;;;;16.20;8.25;;;;;;;13.29;52.57;100565.34;4987683;28;20497;-54
2023/04/11 06:36:52;;;;;;;15.50;10.10;;;;;;;13.32;52.51;100573.88;4982213;28;20599;-55
2023/04/11 06:39:17;;;;;;;16.85;9.35;;;;;;;13.34;52.52;100571.13;4980129;28;20026;-51
2023/04/11 06:41:43;;;;;;;17.05;9.07;;;;;;;13.34;52.73;100566.69;4988558;28;20031;-55
2023/04/11 06:44:09;;;;;;;15.85;9.15;;;;;;;13.40;53.05;100576.00;4989290;28;20081;-54
2023/04/11 06:46:35;;;;;;;16.10;8.43;;;;;;;13.32;53.42;100578.31;4987109;28;20030;-52
2023/04/11 06:49:02;;;;;;;14.95;9.18;;;;;;;13.25;53.77;100581.41;4980205;28;20026;-54
2023/04/11 06:51:27;;;;;;;17.48;9.98;;;;;;;13.16;54.03;100589.13;4986507;28;20459;-55
2023/04/11 06:53:53;;;;;;;20.30;10.18;;;;;;;13.10;54.71;100595.69;4986521;28;20559;-52
2023/04/11 06:56:18;;;;;;;17.88;9.70;;;;;;;13.03;55.04;100584.72;4985559;28;20027;-55
2023/04/11 06:58:44;;;;;;;18.50;9.55;;;;;;;13.00;55.48;100570.91;4975905;28;20027;-52
2023/04/11 07:01:11;;;;;;;18.10;10.55;;;;;;;12.92;56.03;100560.88;4985872;28;20366;-54
2023/04/11 07:03:36;;;;;;;20.55;9.38;;;;;;;12.87;56.12;100560.34;4988589;28;20389;-54
2023/04/11 07:06:02;;;;;;;19.13;9.20;;;;;;;12.81;57.06;100569.56;4988502;28;20481;-52
2023/04/11 07:08:27;;;;;;;17.27;9.68;;;;;;;12.75;57.00;100565.53;4981174;28;20132;-56
2023/04/11 07:10:53;;;;;;;18.65;9.90;;;;;;;12.58;58.19;100569.34;4988322;28;20116;-54
2023/04/11 07:13:20;;;;;;;15.63;8.65;;;;;;;12.44;58.48;100572.94;4992270;28;20080;-52
2023/04/11 07:15:45;;;;;;;18.58;10.38;;;;;;;12.44;58.56;100569.44;4984488;28;20039;-55
2023/04/11 07:18:13;;;;;;;17.10;9.13;;;;;;;12.50;58.67;100575.16;4984906;28;20027;-55
2023/04/11 07:20:38;;;;;;;19.15;9.73;;;;;;;12.62;58.74;100573.47;4986779;28;20089;-52
2023/04/11 07:23:03;;;;;;;17.77;9.93;;;;;;;12.72;58.64;100575.44;4980196;28;20436;-54
2023/04/11 07:25:29;;;;;;;15.40;8.55;;;;;;;12.79;58.89;100588.13;4988715;28;20508;-55
2023/04/11 07:27:55;;;;;;;16.83;9.15;;;;;;;12.86;58.97;100585.06;4981838;28;20038;-51
2023/04/11 07:30:21;;;;;;;41.00;19.92;;;;;;;12.87;59.13;100592.03;4987891;28;20097;-50
2023/04/11 07:32:47;;;;;;;19.92;10.85;;;;;;;12.89;59.43;100593.59;4989000;28;20034;-49
2023/04/11 07:35:13;;;;;;;18.02;10.68;;;;;;;12.88;59.51;100599.00;4984060;28;20076;-52
2023/04/11 07:37:38;;;;;;;18.17;9.57;;;;;;;12.87;59.67;100592.03;4983742;28;20385;-56
2023/04/11 07:40:10;;;;;;;17.63;9.75;;;;;;;12.84;59.99;100598.38;4987641;28;20095;-51
2023/04/11 07:42:36;;;;;;;17.08;9.88;;;;;;;12.86;60.17;100595.63;4992179;28;20093;-53
2023/04/11 07:45:01;;;;;;;18.08;10.25;;;;;;;12.88;60.36;100593.72;4987953;28;20033;-53
2023/04/11 07:47:27;;;;;;;17.13;9.38;;;;;;;12.86;60.21;100601.75;4986024;28;20404;-53
2023/04/11 07:49:52;;;;;;;17.73;9.80;;;;;;;12.85;60.52;100596.56;4993365;28;20369;-53
2023/04/11 07:52:18;;;;;;;16.80;8.95;;;;;;;12.87;60.38;100599.97;4985636;28;20034;-53
2023/04/11 07:54:43;;;;;;;19.20;9.63;;;;;;;12.85;60.62;100593.94;4985050;28;20358;-54
2023/04/11 07:57:08;;;;;;;16.50;9.13;;;;;;;12.83;60.67;100598.47;4976525;28;20497;-52
2023/04/11 07:59:34;;;;;;;17.73;9.93;;;;;;;12.81;60.95;100596.78;4980625;28;20493;-62
2023/04/11 08:02:00;;;;;;;20.77;11.32;;;;;;;12.82;60.88;100600.28;4982844;28;20049;-60
2023/04/11 08:04:30;;;;;;;21.25;12.90;;;;;;;12.81;61.31;100602.06;4989500;28;20014;-50
2023/04/11 08:06:57;;;;;;;20.92;10.75;;;;;;;12.77;61.75;100610.31;4982540;28;20041;-55
2023/04/11 08:09:22;;;;;;;17.95;9.13;;;;;;;12.64;62.53;100602.38;4964666;28;20058;-50
2023/04/11 08:11:47;;;;;;;16.20;9.18;;;;;;;12.65;62.33;100598.78;4975988;28;20034;-56
2023/04/11 08:14:13;;;;;;;18.30;9.38;;;;;;;12.68;62.49;100593.31;4979627;28;20041;-58
2023/04/11 08:16:38;;;;;;;15.73;8.75;;;;;;;12.69;62.57;100605.56;4981355;28;20535;-52
2023/04/11 08:19:04;;;;;;;16.88;9.20;;;;;;;12.79;62.39;100611.06;4983721;28;20033;-54
2023/04/11 08:21:30;;;;;;;17.23;9.90;;;;;;;12.78;62.56;100604.09;4983933;28;20062;-50
2023/04/11 08:23:55;;;;;;;21.55;11.10;;;;;;;12.79;62.59;100608.41;4981116;28;20082;-55
2023/04/11 08:26:21;;;;;;;22.35;11.10;;;;;;;12.84;62.63;100610.72;4982534;28;20042;-51
2023/04/11 08:28:46;;;;;;;19.00;11.05;;;;;;;12.94;62.59;100612.63;5014447;22;20088;-48
2023/04/11 08:31:11;;;;;;;23.38;9.40;;;;;;;12.96;62.81;100615.16;5006089;28;20700;-51
2023/04/11 08:33:38;;;;;;;15.25;8.82;;;;;;;12.92;63.08;100603.97;5010310;28;20076;-52
2023/04/11 08:36:08;;;;;;;14.07;9.07;;;;;;;12.94;62.73;100595.91;5008452;28;20383;-50
2023/04/11 08:38:35;;;;;;;16.40;8.98;;;;;;;13.02;62.76;100598.88;5003997;28;20103;-52
2023/04/11 08:41:00;;;;;;;18.15;8.48;;;;;;;13.10;62.87;100596.53;5009157;28;20389;-52
2023/04/11 08:43:26;;;;;;;15.65;8.70;;;;;;;13.16;62.94;100589.13;5009593;28;20030;-51
2023/04/11 08:45:52;;;;;;;17.40;9.32;;;;;;;13.14;63.27;100596.31;5010392;28;20041;-50
2023/04/11 08:48:20;;;;;;;15.75;8.43;;;;;;;13.16;63.01;100594.41;5008394;28;20042;-48
2023/04/11 08:50:46;;;;;;;14.38;8.68;;;;;;;13.16;63.41;100597.06;5007689;28;20049;-53
2023/04/11 08:53:13;;;;;;;15.52;8.15;;;;;;;13.15;63.57;100595.38;5010830;28;20033;-54
2023/04/11 08:55:45;;;;;;;16.63;8.75;;;;;;;13.03;64.33;100599.72;5004589;28;20022;-50
2023/04/11 08:58:11;;;;;;;18.67;9.23;;;;;;;12.92;64.50;100595.22;5008609;28;20026;-51
2023/04/11 09:00:37;;;;;;;17.95;10.68;;;;;;;12.94;64.18;100582.72;5008904;28;20025;-51
2023/04/11 09:03:07;;;;;;;17.60;8.07;;;;;;;13.05;64.34;100585.47;5009238;28;20051;-52
2023/04/11 09:05:35;;;;;;;14.88;8.73;;;;;;;13.16;63.79;100592.59;5008639;28;20034;-51
2023/04/11 09:08:03;;;;;;;13.43;8.63;;;;;;;13.22;63.80;100588.72;5013060;28;20029;-49
2023/04/11 09:10:43;;;;;;;15.68;8.32;;;;;;;13.27;64.45;100591.84;5010669;28;20033;-51
2023/04/11 09:13:27;;;;;;;14.32;8.25;;;;;;;13.27;64.49;100591.84;4999229;28;20392;-47
2023/04/11 09:16:12;;;;;;;16.73;8.35;;;;;;;13.29;64.44;100597.03;5007294;28;20120;-51
2023/04/11 09:18:45;;;;;;;14.93;8.10;;;;;;;13.33;64.13;100594.06;4999431;28;20018;-52
2023/04/11 09:21:15;;;;;;;14.00;8.00;;;;;;;13.38;64.07;100599.88;5009815;28;20026;-50
2023/04/11 09:23:42;;;;;;;14.48;8.15;;;;;;;13.41;64.18;100601.47;5003448;28;20101;-50
2023/04/11 09:26:09;;;;;;;14.43;8.07;;;;;;;13.46;64.12;100603.78;5010153;28;20026;-50
2023/04/11 09:28:51;;;;;;;12.57;7.38;;;;;;;13.43;64.51;100604.84;5006427;28;20018;-48
2023/04/11 09:31:17;;;;;;;15.60;9.15;;;;;;;13.35;64.53;100602.72;5006384;28;20056;-49
2023/04/11 09:33:57;;;;;;;17.92;9.77;;;;;;;13.24;64.87;100607.91;5006865;28;20049;-49
2023/04/11 09:36:25;;;;;;;15.68;9.07;;;;;;;13.26;64.85;100613.94;5009319;28;20029;-47
2023/04/11 09:38:52;;;;;;;14.48;7.93;;;;;;;13.13;65.54;100605.19;5004583;28;20021;-49
2023/04/11 09:41:31;;;;;;;15.02;8.00;;;;;;;13.07;65.97;100612.63;5007579;28;20129;-47
2023/04/11 09:43:58;;;;;;;14.30;8.50;;;;;;;13.12;65.21;100614.94;5003808;28;20057;-45
2023/04/11 09:46:24;;;;;;;16.42;7.72;;;;;;;13.04;65.49;100611.97;5005561;28;20037;-51
2023/04/11 09:48:51;;;;;;;22.25;10.00;;;;;;;13.00;65.66;100616.63;5006456;28;20017;-52
2023/04/11 09:51:17;;;;;;;18.00;7.93;;;;;;;12.99;65.54;100608.84;5006184;28;20180;-46
2023/04/11 09:53:43;;;;;;;14.55;7.43;;;;;;;13.03;65.34;100612.91;5008789;28;20040;-46
2023/04/11 09:56:09;;;;;;;15.70;8.50;;;;;;;13.13;65.12;100605.19;5005640;28;20030;-46
2023/04/11 09:58:36;;;;;;;15.05;7.93;;;;;;;13.14;65.46;100604.25;4997070;28;20033;-47
2023/04/11 10:01:06;;;;;;;14.07;7.07;;;;;;;13.11;65.20;100610.59;5008328;28;20053;-50
2023/04/11 10:03:38;;;;;;;14.52;7.28;;;;;;;13.19;65.08;100600.31;4999838;28;20045;-57
2023/04/11 10:06:33;;;;;;;12.00;6.55;;;;;;;13.23;65.09;100598.31;5000107;28;20556;-50
2023/04/11 10:09:10;;;;;;;9.90;4.95;;;;;;;13.02;64.69;100614.72;5009449;28;20492;-50
2023/04/11 10:11:35;;;;;;;13.35;5.88;;;;;;;12.98;64.53;100610.59;5008088;28;20046;-48
2023/04/11 10:14:01;;;;;;;9.32;6.00;;;;;;;13.01;64.59;100602.47;5004971;28;20029;-50
2023/04/11 10:16:30;;;;;;;9.45;5.03;;;;;;;13.04;64.81;100609.34;5004645;28;20034;-51
2023/04/11 10:18:55;;;;;;;13.50;6.28;;;;;;;13.00;64.61;100606.06;5009946;28;20061;-51
2023/04/11 10:21:31;;;;;;;11.13;6.78;;;;;;;13.05;65.04;100593.41;5006788;28;20054;-52
2023/04/11 10:24:09;;;;;;;10.50;5.47;;;;;;;13.13;64.84;100598.13;5005686;28;20603;-52
2023/04/11 10:26:48;;;;;;;11.73;6.63;;;;;;;13.17;65.31;100606.69;5007920;28;20025;-51
2023/04/11 10:29:40;;;;;;;9.77;5.28;;;;;;;13.25;64.32;100610.47;5005363;28;20160;-51
2023/04/11 10:32:09;;;;;;;10.50;5.93;;;;;;;13.37;64.15;100608.75;5008528;28;20033;-50
2023/04/11 10:34:39;;;;;;;9.35;5.28;;;;;;;13.44;63.96;100609.19;5006325;28;20450;-48
2023/04/11 10:37:08;;;;;;;9.63;4.97;;;;;;;13.47;63.81;100603.66;5009872;28;20034;-50
2023/04/11 10:39:49;;;;;;;9.25;4.57;;;;;;;13.62;63.87;100607.00;5007549;28;20029;-52
2023/04/11 10:42:33;;;;;;;11.32;5.18;;;;;;;13.67;63.08;100604.88;5007570;28;20033;-51
2023/04/11 10:45:26;;;;;;;11.00;5.07;;;;;;;13.63;63.35;100610.47;5009033;28;20109;-46
2023/04/11 10:47:58;;;;;;;8.23;4.63;;;;;;;13.90;62.78;100615.53;5008779;28;20060;-55
2023/04/11 10:50:26;;;;;;;8.77;4.35;;;;;;;14.08;62.17;100620.44;5012027;28;20040;-46
2023/04/11 10:52:52;;;;;;;7.28;3.10;;;;;;;14.02;61.59;100619.94;5013239;28;20662;-49
2023/04/11 10:55:18;;;;;;;8.75;4.05;;;;;;;14.07;61.58;100605.50;5007001;28;20529;-46
2023/04/11 10:58:15;;;;;;;11.10;3.92;;;;;;;14.18;61.07;100605.56;5004953;28;20037;-46
2023/04/11 11:00:49;;;;;;;8.82;3.75;;;;;;;14.07;60.38;100609.00;5010611;28;20112;-49
2023/04/11 11:03:17;;;;;;;7.95;2.88;;;;;;;14.17;60.66;100611.78;5003711;28;20034;-46
2023/04/11 11:05:43;;;;;;;6.90;2.42;;;;;;;14.19;60.65;100607.25;5011724;28;20167;-48
2023/04/11 11:08:08;;;;;;;13.85;5.72;;;;;;;14.27;60.37;100604.88;5010864;28;20041;-46
2023/04/11 11:10:36;;;;;;;10.82;4.15;;;;;;;14.37;60.20;100610.28;5008919;28;20038;-49
2023/04/11 11:13:02;;;;;;;9.45;3.58;;;;;;;14.42;59.83;100600.19;5011823;28;20376;-51
2023/04/11 11:15:28;;;;;;;11.70;3.40;;;;;;;14.39;59.71;100602.25;5001190;28;20037;-50